Terminal Aerodrome Forecast
Issued by NWS

Home | Current Version | Previous Version | Graphics & Text | Print | Product List | Glossary On
Versions: 1 2 3 4 5 6 7 8 9 10 11 12 13 14 15 16 17 18 19 20 21 22 23 24 25 26 27 28 29 30 31 32
320
FTUS43 KLOT 241140
TAFORD
TAF
KORD 241140Z 2412/2518 04011KT 4SM -DZ BR VCSH OVC003
      TEMPO 2412/2414 3SM -SHRA OVC005
     FM241400 03009KT 1 1/2SM -DZ BR OVC003
     FM242100 34006KT 3SM BR VCSH OVC004
     FM242300 28009KT P6SM BKN008 OVC015
     FM250300 29012G18KT P6SM OVC020
      TEMPO 2506/2508 3SM -RASN
     FM250800 29014G21KT 2SM -SN OVC015
     FM251400 30018G26KT 2SM -SN OVC015
     FM251700 30017G26KT P6SM OVC020=

USA.gov is the U.S. government's official web portal to all federal, state and local government web resources and services.